Flight Track Log - Related Links

Times and Time Zones

All times are in EDT time to prevent confusion due to time zone crossing. See the GJS3649 flight status page for this flight to view local times or setup timezone preferences in your user account.

Time Position Orientation Groundspeed Altitude Reporting Facility
EDT Latitude Longitude Course Direction KTS MPH feet Rate Location/Type
Tue 09:01:03 PM 42.0167 -87.9333 90° East 182 209 1,900  Level Chicago TRACON
Tue 09:02:03 PM 42.0667 -87.8833 37° Northeast 246 283 4,000 2,576 Climbing Chicago TRACON
Tue 09:04:21 PM 42.1453 -87.6933 61° Northeast 290 334 10,400 2,683 Climbing Chicago Center
Tue 09:05:22 PM 42.1681 -87.5869 74° East 297 342 12,900 1,756 Climbing Chicago Center
Tue 09:06:00 PM 42.0918 -87.1522 90° East  Level Estimated
Tue 09:06:24 PM 42.1944 -87.4686 73° East 330 380 14,000  Level Chicago Center
Tue 09:07:26 PM 42.2228 -87.3300 75° East 380 437 15,100 1,500 Climbing Chicago Center
Tue 09:08:28 PM 42.2606 -87.1500 74° East 416 479 17,100 1,694 Climbing Chicago Center
Tue 09:09:30 PM 42.2842 -86.9925 78° East 428 493 18,600 1,610 Climbing Chicago Center
Tue 09:10:31 PM 42.2886 -86.8233 88° East 447 514 20,400 1,707 Climbing Chicago Center
Tue 09:11:33 PM 42.2950 -86.6514 87° East 453 521 22,100 1,597 Climbing Chicago Center
Tue 09:12:35 PM 42.3008 -86.4897 87° East 456 525 23,700 1,694 Climbing Chicago Center
Tue 09:13:37 PM 42.3089 -86.2833 87° East 461 531 25,600 1,415 Climbing Chicago Center
Tue 09:14:38 PM 42.3147 -86.1064 87° East 474 545 26,600 976 Climbing Chicago Center
Tue 09:15:40 PM 42.3133 -85.9214 91° East 493 567 27,600 968 Climbing Chicago Center
Tue 09:16:42 PM 42.3108 -85.7331 91° East 503 579 28,600 976 Climbing Chicago Center
Tue 09:17:43 PM 42.3086 -85.5411 91° East 512 589 29,600 976 Climbing Chicago Center
Tue 09:18:45 PM 42.3050 -85.3464 91° East 518 596 30,600 1,065 Climbing Chicago Center
Tue 09:19:47 PM 42.3019 -85.1119 91° East 522 601 31,800 1,073 Climbing Chicago Center
Tue 09:20:48 PM 42.2972 -84.9164 92° East 523 602 32,800 976 Climbing Chicago Center
Tue 09:21:50 PM 42.2925 -84.7181 92° East 529 609 33,800 968 Climbing Chicago Center
Tue 09:22:52 PM 42.2878 -84.5219 92° East 528 608 34,800 581 Climbing Chicago Center
Tue 09:23:54 PM 42.3064 -84.3247 83° East 533 613 35,000 118 Climbing Chicago Center
Tue 09:24:34 PM 42.3203 -84.1856 82° East 540 621 35,000  Level Cleveland Center
Tue 09:25:36 PM 42.3439 -83.9772 81° East 558 642 35,000  Level Cleveland Center
Tue 09:26:37 PM 42.3661 -83.7697 82° East 558 642 35,000  Level Cleveland Center
Tue 09:27:39 PM 42.3914 -83.5375 82° East 556 640 35,000  Level Cleveland Center
Tue 09:28:40 PM 42.4128 -83.3300 82° East 553 636 35,000  Level Cleveland Center
Tue 09:29:42 PM 42.4319 -83.1389 82° East 552 635 35,000 195 Level Cleveland Center
Tue 09:30:43 PM 42.4522 -82.9325 82° East 552 635 35,400 585 Climbing Cleveland Center
Tue 09:31:45 PM 42.4772 -82.6839 82° East 555 639 36,200 732 Climbing Cleveland Center
Tue 09:32:46 PM 42.4978 -82.4758 82° East 559 643 36,900 683 Climbing Cleveland Center
Tue 09:33:48 PM 42.5178 -82.2678 83° East 559 643 37,600 683 Climbing Cleveland Center
Tue 09:34:49 PM 42.5369 -82.0600 83° East 557 641 38,300 683 Climbing Cleveland Center
Tue 09:35:51 PM 42.5564 -81.8542 83° East 554 638 39,000 341 Climbing Cleveland Center
Tue 09:36:52 PM 42.5767 -81.6197 83° East 553 636 39,000  Level Cleveland Center
Tue 09:37:53 PM 42.5958 -81.4058 83° East 561 646 39,000  Level Cleveland Center
Tue 09:38:55 PM 42.6147 -81.1892 83° East 571 657 39,000  Level Cleveland Center
Tue 09:39:56 PM 42.6333 -80.9750 83° East 567 652 39,000  Level Cleveland Center
Tue 09:40:58 PM 42.6497 -80.7622 84° East 563 648 39,000  Level Cleveland Center
Tue 09:41:59 PM 42.6672 -80.5547 83° East 552 635 39,000  Level Cleveland Center
Tue 09:43:01 PM 42.6839 -80.3461 84° East 551 634 39,000  Level Cleveland Center
Tue 09:44:02 PM 42.7000 -80.1378 84° East 549 632 39,000 -443 Level Cleveland Center
Tue 09:45:03 PM 42.7167 -79.9072 84° East 555 639 38,100 -927 Descending Cleveland Center
Tue 09:46:05 PM 42.7325 -79.6936 84° East 568 654 37,100 -976 Descending Cleveland Center
Tue 09:47:06 PM 42.7478 -79.4831 84° East 559 643 36,100 -984 Descending Cleveland Center
Tue 09:48:07 PM 42.7622 -79.2814 84° East 539 620 35,100 -976 Descending Cleveland Center
Tue 09:49:09 PM 42.7756 -79.0736 85° East 549 632 34,100 -976 Descending Cleveland Center
Tue 09:50:10 PM 42.7892 -78.8692 85° East 544 626 33,100 -984 Descending Cleveland Center
Tue 09:51:11 PM 42.8011 -78.6708 85° East 530 610 32,100 -976 Descending Cleveland Center
Tue 09:52:13 PM 42.8133 -78.4742 85° East 522 601 31,100 -1,024 Descending Cleveland Center
Tue 09:53:14 PM 42.8292 -78.2789 84° East 517 595 30,000 -1,561 Descending Cleveland Center
Tue 09:54:16 PM 42.8558 -78.0944 79° East 495 570 27,900 -2,537 Descending Cleveland Center
Tue 09:55:17 PM 42.8861 -77.8797 79° East 477 549 24,800 -2,754 Descending Cleveland Center
Tue 09:56:18 PM 42.9089 -77.7056 80° East 461 531 22,300 -2,439 Descending Cleveland Center
Tue 09:57:20 PM 42.9322 -77.5339 79° East 457 526 19,800 -2,293 Descending Cleveland Center
Tue 09:58:21 PM 42.9533 -77.3697 80° East 441 507 17,600 -2,293 Descending Cleveland Center
Tue 09:59:23 PM 42.9739 -77.2103 80° East 427 491 15,100 -2,439 Descending Cleveland Center
Tue 10:00:24 PM 42.9936 -77.0575 80° East 412 474 12,600 -1,918 Descending Cleveland Center
Tue 10:01:25 PM 43.0117 -76.9156 80° East 385 443 11,200 -1,024 Descending Cleveland Center
Tue 10:02:27 PM 43.0339 -76.7967 76° East 335 386 10,500 -1,171 Descending Cleveland Center
Tue 10:03:28 PM 43.0683 -76.6719 69° East 312 359 8,800 -1,664 Descending Cleveland Center
Tue 10:04:26 PM 43.0936 -76.5758 70° East 286 329 7,200 -1,594 Descending Boston Center
Tue 10:04:32 PM 43.0947 -76.5706 74° East 292 336 7,100 -1,574 Descending Boston Center
Tue 10:05:27 PM 43.0964 -76.4742 89° East 261 300 5,600 -1,574 Descending Boston Center
Tue 10:05:33 PM 43.0961 -76.4697 95° East 272 313 5,500 -1,279 Descending Boston Center
Tue 10:06:28 PM 43.0997 -76.3789 87° East 244 281 4,300 -1,279 Descending Boston Center
Tue 10:06:34 PM 43.0986 -76.3761 119° Southeast 254 292 4,200 -1,180 Descending Boston Center
Tue 10:07:29 PM 43.1033 -76.2956 85° East 221 254 3,100 -1,345 Descending Boston Center
Tue 10:07:32 PM 43.1025 -76.2903 102° East 241 277 2,900 -1,082 Descending Boston Center
Tue 10:08:30 PM 43.1050 -76.2231 87° East 185 213 2,000 -984 Descending Boston Center
Tue 10:08:33 PM 43.1047 -76.2183 95° East 214 246 1,900 -915 Descending Boston Center
Tue 10:09:29 PM 43.1056 -76.1706 89° East 121 139 1,100 -774 Descending Boston Center
Tue 10:09:35 PM 43.1064 -76.1697 36° Northeast 160 184 1,100 -618 Level Boston Center
Tue 10:10:37 PM 43.1083 -76.1208 87° East 138 159 400 -227 Descending Boston Center
Tue 10:12:40 PM 43.1153 -76.1092 51° Northeast 44 51 400  Level Cleveland Center
Tue 10:13:41 PM 43.1167 -76.1164 285° West 34 39 400  Level Cleveland Center

Login

Don't have an account? Register now (free) for customized features, flight alerts, and more!